Tuesday, December 18, 2018, 1:16 PM EST
Back to Local

KMVY, Vineyard Haven Marthas Vin

Location: Vineyard Haven, MA, United States Lat: 41.4
Local Time: 1:16 PM EST (18:16 GMT) Lon: -70.617
Time Zone: US/Eastern Elev: 68 ft

Show me the last for .
Show Decoded

2018-12-18 12:53 METAR KMVY 181753Z 31018G26KT 10SM CLR 01/M11 A2982 RMK AO2 PK WND 35028/1737
                 SLP098 T00061106 10006 21033 52009 =
2018-12-18 11:53 METAR KMVY 181653Z 31022G29KT 10SM FEW095 M01/M11 A2981 RMK AO2 PK WND
                 29029/1640 SLP095 T10061111 =
2018-12-18 10:53 METAR KMVY 181553Z 33018G26KT 10SM CLR M01/M11 A2980 RMK AO2 PK WND 32031/1517
                 SLP092 T10061111 =
2018-12-18 09:53 METAR KMVY 181453Z 32020G32KT 10SM CLR M02/M12 A2979 RMK AO2 PK WND 32041/1356
                 SLP089 T10171117 51031 =
2018-12-18 08:53 METAR KMVY 181353Z 32026G36KT 10SM CLR M02/M12 A2977 RMK AO2 PK WND 32038/1330
                 SLP081 T10221117 =
2018-12-18 07:53 METAR KMVY 181253Z 32021G37KT 10SM SCT085 M03/M12 A2974 RMK AO2 PK WND
                 32039/1240 SLP070 T10281117 =
2018-12-18 06:53 METAR KMVY 181153Z 32023G35KT 10SM CLR M03/M11 A2970 RMK AO2 PK WND 33039/1100
                 SLP057 60000 T10331106 10039 21033 53035 =
2018-12-18 05:53 METAR KMVY 181053Z AUTO 32025G38KT 10SM SCT044 M02/M11 A2967 RMK AO2 PK WND
                 32043/1019 SLP047 T10221106 =
2018-12-18 04:53 METAR KMVY 180953Z AUTO 30020G32KT 10SM OVC046 M01/M09 A2963 RMK AO2 PK WND
                 31035/0943 SLP033 T10061089 =
2018-12-18 03:53 METAR KMVY 180853Z AUTO 32019G30KT 10SM FEW046 BKN100 OVC120 01/M07 A2960 RMK
                 AO2 PK WND 31031/0810 SLP023 60000 T00111072 53012 =
2018-12-18 02:53 METAR KMVY 180753Z AUTO 30014G27KT 10SM BKN039 BKN048 02/M04 A2958 RMK AO2 PK
                 WND 30036/0720 SNB14E23 SLP017 P0000 T00171044 =
2018-12-18 01:53 METAR KMVY 180653Z AUTO 28017G29KT 10SM BKN070 OVC090 03/M04 A2957 RMK AO2 PK
                 WND 28030/0557 SLP013 T00331044 =
2018-12-18 00:53 METAR KMVY 180553Z AUTO 27015G26KT 10SM OVC090 04/M02 A2956 RMK AO2 PK WND
                 27026/0547 SLP011 T00391017 10044 20039 58010 =
2018-12-17 23:53 METAR KMVY 180453Z AUTO 28014G24KT 10SM OVC085 04/M02 A2957 RMK AO2 PK WND
                 28028/0434 SLP013 T00391017 400610028 =
2018-12-17 22:53 METAR KMVY 180353Z AUTO 29015G22KT 10SM OVC080 04/M01 A2959 RMK AO2 SLP020
                 T00391011 =
2018-12-17 21:53 METAR KMVY 180253Z AUTO 28013G20KT 10SM OVC080 04/M02 A2959 RMK AO2 SLP021
                 T00391017 51007 =
2018-12-17 20:53 METAR KMVY 180153Z AUTO 30011G21KT 10SM CLR 04/M02 A2959 RMK AO2 SLP019
                 T00391017 =
2018-12-17 19:53 METAR KMVY 180053Z AUTO 30013G26KT 10SM FEW044 04/M02 A2958 RMK AO2 PK WND
                 31026/0048 SLP017 T00441017 =
2018-12-17 18:53 METAR KMVY 172353Z AUTO 29012G21KT 10SM SCT070 04/M01 A2957 RMK AO2 SLP013 60000
                 T00441011 10050 20039 53007 =
2018-12-17 17:53 METAR KMVY 172253Z AUTO 29010G21KT 10SM FEW047 OVC070 05/00 A2956 RMK AO2 SLP010
                 T00500000 =
2018-12-17 16:53 METAR KMVY 172153Z 28011KT 10SM OVC050 05/01 A2955 RMK AO2 SLP007 T00500006 =
2018-12-17 15:53 METAR KMVY 172053Z 29008KT 10SM OVC044 04/01 A2955 RMK AO2 RAB05E15 SLP007 P0000
                 60000 T00440006 53003 =
2018-12-17 15:14 METAR KMVY 172014Z 30014G21KT 10SM -RA FEW024 OVC032 04/01 A2955 RMK AO2 RAB05
                 P0000 T00440006 =
2018-12-17 14:53 METAR KMVY 171953Z 29015G22KT 10SM BKN024 OVC032 05/01 A2955 RMK AO2 SLP005
                 T00500006 =
2018-12-17 13:53 METAR KMVY 171853Z 31009KT 10SM SCT015 OVC019 04/02 A2954 RMK AO2 SLP003
                 T00440022 =
2018-12-17 13:49 METAR KMVY 171849Z 30007KT 10SM BKN015 OVC019 04/02 A2954 RMK AO2 =

Support USWX by starting your Amazon purchase here.